Time;durP1;ratioP1;P1;durP2;ratioP2;P2;SDS_P1;SDS_P2;PMS_P1;PMS_P2;Temp;Humidity;BMP_temperature;BMP_pressure;BME280_temperature;BME280_humidity;BME280_pressure;Samples;Min_cycle;Max_cycle;Signal;HPM_P1;HPM_P2
2023/03/14 00:01:18;;;;;;;2.42;1.80;;;11.40;99.90;;;;;;5043718;28;20908;-87
2023/03/14 00:03:44;;;;;;;3.20;1.90;;;11.40;99.90;;;;;;5038939;28;20802;-86
2023/03/14 00:06:11;;;;;;;2.13;1.92;;;11.40;99.90;;;;;;5040646;28;20400;-87
2023/03/14 00:08:37;;;;;;;3.05;1.90;;;11.20;99.90;;;;;;5042866;28;20369;-87
2023/03/14 00:11:08;;;;;;;1.70;1.55;;;11.20;99.90;;;;;;5041402;28;20377;-88
2023/03/14 00:13:34;;;;;;;1.87;1.70;;;11.30;99.90;;;;;;5044053;28;20413;-87
2023/03/14 00:16:11;;;;;;;2.58;1.60;;;11.20;99.90;;;;;;5041476;28;20387;-86
2023/03/14 00:18:36;;;;;;;1.50;1.40;;;11.30;99.90;;;;;;5041611;28;20396;-87
2023/03/14 00:21:04;;;;;;;2.35;1.52;;;11.30;99.90;;;;;;5036177;28;21137;-86
2023/03/14 00:23:31;;;;;;;1.70;1.38;;;11.20;99.90;;;;;;5039319;28;20384;-85
2023/03/14 00:26:04;;;;;;;2.85;1.80;;;11.20;99.90;;;;;;5042910;28;20357;-87
2023/03/14 00:28:31;;;;;;;3.10;1.50;;;11.30;99.90;;;;;;5044762;28;20377;-85
2023/03/14 00:30:57;;;;;;;3.63;1.75;;;11.10;99.90;;;;;;5050790;28;20380;-86
2023/03/14 00:33:23;;;;;;;2.08;1.70;;;11.00;99.90;;;;;;5036357;28;20474;-85
2023/03/14 00:36:00;;;;;;;2.15;1.50;;;10.90;99.90;;;;;;5025589;28;20801;-89
2023/03/14 00:38:27;;;;;;;1.90;1.43;;;11.10;99.90;;;;;;5023616;28;20924;-87
2023/03/14 00:40:53;;;;;;;2.58;1.48;;;11.00;99.90;;;;;;5040722;28;20380;-86
2023/03/14 00:43:23;;;;;;;3.17;1.50;;;11.00;99.90;;;;;;5031791;28;20374;-86
2023/03/14 00:45:50;;;;;;;4.85;1.85;;;11.00;99.90;;;;;;5014888;28;20414;-86
2023/03/14 00:48:16;;;;;;;3.90;2.17;;;10.90;99.90;;;;;;5021362;28;20403;-85
2023/03/14 00:50:42;;;;;;;2.00;1.55;;;10.90;99.90;;;;;;5030918;28;20405;-85
2023/03/14 00:53:08;;;;;;;1.58;1.33;;;11.00;99.90;;;;;;5031303;28;20397;-87
2023/03/14 00:55:42;;;;;;;1.60;1.50;;;11.00;99.90;;;;;;5032377;28;20388;-87
2023/03/14 00:58:12;;;;;;;2.83;1.50;;;11.10;99.90;;;;;;5031730;28;20561;-88
2023/03/14 01:00:38;;;;;;;2.40;1.50;;;11.10;99.90;;;;;;5033028;28;20737;-86
2023/03/14 01:03:05;;;;;;;2.42;1.55;;;11.10;99.90;;;;;;5033664;28;20576;-87
2023/03/14 01:05:33;;;;;;;1.95;1.60;;;10.90;99.90;;;;;;5031850;28;20428;-87
2023/03/14 01:08:28;;;;;;;3.43;1.77;;;11.00;99.90;;;;;;5031537;28;20431;-88
2023/03/14 01:10:53;;;;;;;2.38;1.60;;;10.90;99.90;;;;;;5032230;28;20733;-88
2023/03/14 01:13:18;;;;;;;1.85;1.60;;;11.00;99.90;;;;;;5031475;28;20397;-87
2023/03/14 01:15:44;;;;;;;3.10;1.75;;;10.80;99.90;;;;;;5031311;28;20381;-87
2023/03/14 01:18:10;;;;;;;3.43;1.67;;;10.80;99.90;;;;;;5031728;28;20428;-86
2023/03/14 01:20:37;;;;;;;2.17;1.60;;;10.80;99.90;;;;;;5033638;28;20385;-86
2023/03/14 01:23:10;;;;;;;2.30;1.60;;;10.60;99.90;;;;;;5036711;28;20397;-86
2023/03/14 01:25:41;;;;;;;5.40;1.50;;;10.70;99.90;;;;;;5039688;28;20382;-85
2023/03/14 01:28:07;;;;;;;1.60;1.50;;;10.70;99.90;;;;;;5029741;28;20413;-86
2023/03/14 01:30:33;;;;;;;2.83;1.53;;;10.70;99.90;;;;;;5029944;28;20416;-85
2023/03/14 01:32:58;;;;;;;1.60;1.50;;;10.90;99.90;;;;;;5030155;28;20396;-85
2023/03/14 01:35:26;;;;;;;2.75;1.25;;;10.80;99.90;;;;;;5030631;28;20381;-85
2023/03/14 01:37:52;;;;;;;1.50;1.40;;;10.70;99.90;;;;;;5264678;23;20429;-85
2023/03/14 01:40:18;;;;;;;2.25;1.90;;;10.90;99.90;;;;;;4993663;28;20404;-88
2023/03/14 01:42:49;;;;;;;2.75;1.80;;;10.80;99.90;;;;;;5003352;28;20405;-85
2023/03/14 01:45:52;;;;;;;1.90;1.58;;;10.80;99.90;;;;;;4997104;28;20752;-87
2023/03/14 01:48:17;;;;;;;1.85;1.40;;;10.80;99.90;;;;;;5022916;28;20405;-84
2023/03/14 01:50:43;;;;;;;2.05;1.30;;;10.80;99.90;;;;;;5019905;28;20442;-84
2023/03/14 01:53:09;;;;;;;1.88;1.58;;;10.90;99.90;;;;;;5003501;28;20409;-83
2023/03/14 01:55:36;;;;;;;2.20;1.60;;;10.90;99.90;;;;;;5000854;28;20871;-87
2023/03/14 01:58:04;;;;;;;3.53;1.60;;;10.80;99.90;;;;;;5005248;28;20549;-87
2023/03/14 02:00:31;;;;;;;3.05;1.60;;;10.80;99.90;;;;;;4980349;28;21809;-85
2023/03/14 02:03:05;;;;;;;1.85;1.50;;;10.80;99.90;;;;;;5003796;28;20364;-85
2023/03/14 02:05:37;;;;;;;2.72;1.60;;;10.90;99.90;;;;;;5011195;28;20526;-87
2023/03/14 02:08:06;;;;;;;2.13;1.45;;;10.80;99.90;;;;;;5010922;28;20379;-85
2023/03/14 02:10:46;;;;;;;1.60;1.50;;;10.70;99.90;;;;;;5012218;28;20708;-86
2023/03/14 02:13:14;;;;;;;2.72;1.60;;;10.70;99.90;;;;;;5009411;28;20463;-86
2023/03/14 02:15:40;;;;;;;3.17;1.70;;;10.70;99.90;;;;;;5009264;28;20409;-85
2023/03/14 02:18:07;;;;;;;2.00;1.45;;;10.70;99.90;;;;;;5007899;28;20457;-86
2023/03/14 02:20:54;;;;;;;2.60;1.47;;;10.80;99.90;;;;;;5003082;28;20490;-85
2023/03/14 02:23:40;;;;;;;2.55;1.60;;;10.60;99.90;;;;;;4991972;28;20412;-85
2023/03/14 02:26:15;;;;;;;1.73;1.42;;;10.70;99.90;;;;;;4983761;28;20385;-86
2023/03/14 02:28:41;;;;;;;1.95;1.50;;;10.70;99.90;;;;;;4990167;28;20428;-85
2023/03/14 02:31:10;;;;;;;2.50;1.33;;;10.60;99.90;;;;;;5003468;28;20445;-85
2023/03/14 02:33:38;;;;;;;1.85;1.20;;;10.70;99.90;;;;;;5010684;28;20411;-86
2023/03/14 02:36:11;;;;;;;2.25;1.30;;;10.70;99.90;;;;;;5026337;28;20403;-87
2023/03/14 02:39:11;;;;;;;2.30;1.58;;;10.60;99.90;;;;;;5009342;28;20908;-85
2023/03/14 02:41:39;;;;;;;2.22;1.23;;;10.70;99.90;;;;;;5011721;28;20383;-86
2023/03/14 02:44:05;;;;;;;1.52;1.33;;;10.60;99.90;;;;;;5011519;28;20445;-87
2023/03/14 02:46:31;;;;;;;1.85;1.35;;;10.60;99.90;;;;;;5014051;28;20788;-86
2023/03/14 02:49:12;;;;;;;1.80;1.38;;;10.50;99.90;;;;;;5010362;28;20408;-85
2023/03/14 02:51:39;;;;;;;2.80;1.48;;;10.50;99.90;;;;;;4993415;28;20401;-86
2023/03/14 02:54:06;;;;;;;2.08;1.60;;;10.50;99.90;;;;;;4995021;28;20389;-85
2023/03/14 02:56:37;;;;;;;2.42;1.58;;;10.60;99.90;;;;;;4995757;28;22355;-85
2023/03/14 02:59:04;;;;;;;2.00;1.40;;;10.60;99.90;;;;;;4994602;28;20408;-84
2023/03/14 03:01:29;;;;;;;2.90;1.50;;;10.70;99.90;;;;;;4994195;28;20424;-85
2023/03/14 03:03:55;;;;;;;2.00;1.60;;;10.60;99.90;;;;;;5000542;28;20409;-85
2023/03/14 03:06:21;;;;;;;1.37;1.27;;;10.80;99.90;;;;;;5009502;28;20399;-86
2023/03/14 03:08:47;;;;;;;1.83;1.35;;;10.60;99.90;;;;;;5011217;28;20384;-85
2023/03/14 03:11:13;;;;;;;2.28;1.38;;;10.50;99.90;;;;;;4994623;28;20447;-86
2023/03/14 03:13:39;;;;;;;1.35;1.20;;;10.60;99.90;;;;;;5026368;28;20449;-86
2023/03/14 03:16:05;;;;;;;1.52;1.30;;;10.50;99.90;;;;;;5015330;28;20384;-85
2023/03/14 03:18:31;;;;;;;1.52;1.30;;;10.70;99.90;;;;;;5014158;28;20403;-86
2023/03/14 03:21:03;;;;;;;2.00;1.25;;;10.70;99.90;;;;;;5009868;28;20456;-86
2023/03/14 03:23:31;;;;;;;2.05;1.23;;;10.60;99.90;;;;;;4995967;28;20407;-87
2023/03/14 03:25:57;;;;;;;1.40;1.30;;;10.50;99.90;;;;;;5013080;28;20382;-85
2023/03/14 03:28:23;;;;;;;2.20;1.20;;;10.60;99.90;;;;;;5015346;28;20471;-84
2023/03/14 03:30:49;;;;;;;1.73;1.30;;;10.50;99.90;;;;;;5015725;28;20384;-86
2023/03/14 03:33:18;;;;;;;2.08;1.35;;;10.60;99.90;;;;;;5017130;28;20383;-85
2023/03/14 03:35:47;;;;;;;3.15;2.10;;;10.50;99.90;;;;;;5014820;28;20383;-86
2023/03/14 03:38:13;;;;;;;1.92;1.60;;;10.50;99.90;;;;;;5008270;28;21390;-87
2023/03/14 03:40:41;;;;;;;3.03;1.50;;;10.50;99.90;;;;;;5027950;28;20784;-87
2023/03/14 03:43:06;;;;;;;2.88;1.73;;;10.40;99.90;;;;;;4993380;28;20388;-85
2023/03/14 03:45:35;;;;;;;2.22;1.73;;;10.50;99.90;;;;;;5027586;28;20388;-86
2023/03/14 03:48:01;;;;;;;3.35;2.00;;;10.60;99.90;;;;;;4994792;28;20540;-87
2023/03/14 03:50:29;;;;;;;2.22;1.70;;;10.50;99.90;;;;;;5027304;28;20954;-85
2023/03/14 03:52:55;;;;;;;1.80;1.52;;;10.40;99.90;;;;;;4996617;28;20919;-86
2023/03/14 03:55:21;;;;;;;3.30;1.53;;;10.50;99.90;;;;;;5027354;28;20421;-85
2023/03/14 03:57:47;;;;;;;1.30;1.20;;;10.40;99.90;;;;;;5028954;28;20404;-86
2023/03/14 04:00:13;;;;;;;2.88;1.30;;;10.50;99.90;;;;;;5002534;28;20385;-86
2023/03/14 04:02:39;;;;;;;2.05;1.23;;;10.50;99.90;;;;;;5031795;28;20413;-87
2023/03/14 04:05:05;;;;;;;2.55;1.25;;;10.50;99.90;;;;;;5032860;28;20402;-85
2023/03/14 04:07:33;;;;;;;3.17;1.27;;;10.40;99.90;;;;;;5024345;28;20418;-84
2023/03/14 04:09:59;;;;;;;2.00;1.05;;;10.40;99.90;;;;;;5013156;28;20432;-86
2023/03/14 04:12:26;;;;;;;2.25;1.20;;;10.30;99.90;;;;;;4996956;28;20760;-86
2023/03/14 04:14:57;;;;;;;2.67;1.40;;;10.30;99.90;;;;;;5008454;28;20397;-87
2023/03/14 04:17:23;;;;;;;2.08;1.30;;;10.20;99.90;;;;;;4997439;28;20523;-87
2023/03/14 04:19:51;;;;;;;2.13;1.20;;;10.20;99.90;;;;;;5005141;28;20475;-86
2023/03/14 04:22:16;;;;;;;1.83;1.20;;;10.30;99.90;;;;;;4997109;28;20398;-85
2023/03/14 04:24:42;;;;;;;2.60;1.38;;;10.20;99.90;;;;;;4997536;28;20393;-87
2023/03/14 04:27:08;;;;;;;2.60;1.27;;;10.30;99.90;;;;;;4995995;28;20397;-85
2023/03/14 04:29:34;;;;;;;1.27;1.17;;;10.40;99.90;;;;;;4997972;28;20392;-86
2023/03/14 04:32:00;;;;;;;1.90;1.30;;;10.30;99.90;;;;;;4993017;28;20387;-86
2023/03/14 04:34:25;;;;;;;2.17;1.00;;;10.30;99.90;;;;;;4994690;28;20412;-86
2023/03/14 04:36:51;;;;;;;1.30;0.93;;;10.40;99.90;;;;;;5029561;28;20885;-86
2023/03/14 04:39:17;;;;;;;2.57;1.20;;;10.40;99.90;;;;;;5012591;28;20398;-85
2023/03/14 04:41:44;;;;;;;3.20;1.20;;;10.50;99.90;;;;;;5014897;28;20378;-86
2023/03/14 04:44:10;;;;;;;2.45;1.35;;;10.40;99.90;;;;;;5011571;28;20430;-88
2023/03/14 04:46:35;;;;;;;1.42;1.20;;;10.40;99.90;;;;;;5002534;28;20806;-86
2023/03/14 04:49:01;;;;;;;1.70;1.23;;;10.40;99.90;;;;;;5023386;28;20439;-85
2023/03/14 04:51:27;;;;;;;2.00;1.20;;;10.40;99.90;;;;;;5023586;28;20898;-84
2023/03/14 04:53:54;;;;;;;2.13;1.17;;;10.40;99.90;;;;;;4992111;28;20369;-85
2023/03/14 04:56:20;;;;;;;2.33;1.48;;;10.40;99.90;;;;;;4991749;28;20404;-85
2023/03/14 04:58:46;;;;;;;2.30;1.20;;;10.30;99.90;;;;;;5023922;28;20503;-87
2023/03/14 05:01:12;;;;;;;2.90;1.40;;;10.30;99.90;;;;;;4992854;28;20389;-86
2023/03/14 05:03:37;;;;;;;1.67;1.20;;;10.20;99.90;;;;;;5023204;28;20392;-86
2023/03/14 05:06:04;;;;;;;2.00;1.17;;;10.20;99.90;;;;;;5024721;28;20884;-86
2023/03/14 05:08:30;;;;;;;1.90;1.30;;;10.20;99.90;;;;;;4990525;28;20393;-85
2023/03/14 05:10:58;;;;;;;2.63;1.20;;;10.20;99.90;;;;;;4994255;28;20436;-85
2023/03/14 05:13:27;;;;;;;1.60;1.20;;;10.30;99.90;;;;;;5014363;28;20384;-86
2023/03/14 05:15:55;;;;;;;1.90;1.20;;;10.20;99.90;;;;;;5019678;28;20393;-86
2023/03/14 05:18:20;;;;;;;2.05;1.27;;;10.20;99.90;;;;;;5028464;28;20450;-85
2023/03/14 05:20:46;;;;;;;2.30;1.25;;;10.20;99.90;;;;;;5000963;28;20795;-85
2023/03/14 05:23:12;;;;;;;1.40;1.30;;;10.10;99.90;;;;;;5013491;28;20388;-84
2023/03/14 05:25:38;;;;;;;1.85;1.33;;;10.20;99.90;;;;;;5013822;28;20397;-86
2023/03/14 05:28:04;;;;;;;3.00;1.45;;;10.20;99.90;;;;;;5016686;28;21097;-87
2023/03/14 05:30:30;;;;;;;2.77;1.33;;;10.30;99.90;;;;;;5032595;28;20385;-86
2023/03/14 05:32:56;;;;;;;2.58;1.20;;;10.30;99.90;;;;;;5013619;28;20395;-86
2023/03/14 05:35:22;;;;;;;1.73;1.02;;;10.30;99.90;;;;;;5010025;28;20391;-86
2023/03/14 05:37:48;;;;;;;1.80;1.23;;;10.30;99.90;;;;;;4999599;28;20466;-86
2023/03/14 05:40:14;;;;;;;2.25;1.27;;;10.30;99.90;;;;;;4993462;28;20389;-86
2023/03/14 05:42:39;;;;;;;2.90;1.20;;;10.30;99.90;;;;;;4991381;28;20385;-86
2023/03/14 05:45:06;;;;;;;1.97;1.20;;;10.30;99.90;;;;;;4991753;28;20453;-85
2023/03/14 05:47:32;;;;;;;2.35;1.10;;;10.30;99.90;;;;;;5008923;28;20449;-85
2023/03/14 05:50:03;;;;;;;1.57;1.20;;;10.30;99.90;;;;;;4992475;28;20420;-86
2023/03/14 05:52:29;;;;;;;2.15;1.52;;;10.40;99.90;;;;;;4990741;28;20393;-86
2023/03/14 05:54:55;;;;;;;1.20;1.05;;;10.40;99.90;;;;;;4993131;28;20440;-87
2023/03/14 05:57:20;;;;;;;1.70;1.20;;;10.60;99.90;;;;;;5020478;28;20412;-87
2023/03/14 05:59:46;;;;;;;3.00;1.50;;;10.40;99.90;;;;;;4999148;28;20422;-86
2023/03/14 06:02:14;;;;;;;2.13;1.20;;;10.30;99.90;;;;;;4992317;28;20404;-87
2023/03/14 06:04:40;;;;;;;3.27;1.40;;;10.30;99.90;;;;;;4991999;28;20457;-86
2023/03/14 06:07:06;;;;;;;1.50;1.30;;;10.30;99.90;;;;;;4995820;28;20442;-87
2023/03/14 06:09:34;;;;;;;2.38;1.40;;;10.40;99.90;;;;;;5010154;28;20406;-85
2023/03/14 06:12:00;;;;;;;1.70;1.20;;;10.40;99.90;;;;;;5011120;28;20424;-85
2023/03/14 06:14:26;;;;;;;3.80;1.30;;;10.40;99.90;;;;;;5010005;28;20395;-85
2023/03/14 06:16:52;;;;;;;2.15;1.23;;;10.50;99.90;;;;;;5008786;28;20429;-86
2023/03/14 06:19:18;;;;;;;3.25;1.35;;;10.40;99.90;;;;;;5028288;28;20408;-87
2023/03/14 06:21:44;;;;;;;3.00;1.30;;;10.50;99.90;;;;;;5013693;28;20433;-86
2023/03/14 06:24:10;;;;;;;1.63;1.00;;;10.60;99.90;;;;;;5013212;28;20410;-87
2023/03/14 06:26:36;;;;;;;4.70;1.38;;;10.60;99.90;;;;;;5010042;28;20474;-85
2023/03/14 06:29:03;;;;;;;2.17;1.40;;;10.70;99.90;;;;;;5011523;28;20756;-87
2023/03/14 06:31:32;;;;;;;3.63;1.50;;;10.60;99.90;;;;;;5011092;28;20384;-86
2023/03/14 06:33:59;;;;;;;4.35;1.67;;;10.70;99.90;;;;;;5008440;28;20405;-85
2023/03/14 06:36:25;;;;;;;3.70;1.30;;;10.60;99.90;;;;;;4996162;28;20391;-86
2023/03/14 06:38:51;;;;;;;4.97;1.83;;;10.60;99.90;;;;;;4997378;28;20403;-84
2023/03/14 06:41:17;;;;;;;3.97;1.90;;;10.60;99.90;;;;;;4998437;28;20393;-88
2023/03/14 06:43:43;;;;;;;2.73;1.37;;;10.70;99.90;;;;;;5000248;28;20483;-87
2023/03/14 06:46:08;;;;;;;4.57;1.70;;;10.70;99.90;;;;;;5029732;28;20395;-87
2023/03/14 06:48:34;;;;;;;3.58;1.40;;;10.80;99.90;;;;;;5034966;28;20395;-86
2023/03/14 06:51:00;;;;;;;5.00;1.70;;;10.90;99.90;;;;;;5023727;28;20502;-83
2023/03/14 06:53:25;;;;;;;3.90;1.70;;;11.10;99.90;;;;;;4997178;28;20957;-85
2023/03/14 06:55:51;;;;;;;3.33;1.60;;;11.10;99.90;;;;;;5013356;28;20471;-85
2023/03/14 06:58:17;;;;;;;3.83;1.95;;;11.20;99.90;;;;;;5030448;28;20415;-84
2023/03/14 07:00:43;;;;;;;2.25;1.40;;;11.30;99.90;;;;;;5012328;28;20476;-85
2023/03/14 07:03:10;;;;;;;4.23;1.70;;;11.60;99.90;;;;;;5013029;28;20890;-84
2023/03/14 07:05:36;;;;;;;2.85;1.50;;;11.60;99.90;;;;;;4994534;28;20420;-84
2023/03/14 07:08:01;;;;;;;4.43;1.58;;;11.50;99.90;;;;;;4990769;28;20752;-83
2023/03/14 07:10:27;;;;;;;5.72;1.88;;;11.40;99.90;;;;;;5002913;28;20958;-84
2023/03/14 07:12:53;;;;;;;5.18;1.70;;;11.40;99.90;;;;;;5012065;28;20383;-83
2023/03/14 07:15:19;;;;;;;4.40;1.55;;;11.40;99.90;;;;;;5005492;28;20403;-83
2023/03/14 07:17:47;;;;;;;3.95;1.40;;;11.40;99.90;;;;;;5006194;28;20510;-82
2023/03/14 07:20:13;;;;;;;3.40;1.40;;;11.50;99.90;;;;;;5006911;28;20434;-82
2023/03/14 07:22:39;;;;;;;3.53;1.60;;;11.70;99.90;;;;;;5003121;28;20405;-84
2023/03/14 07:25:05;;;;;;;4.32;1.80;;;12.00;99.90;;;;;;4993156;28;20756;-83
2023/03/14 07:27:31;;;;;;;3.25;1.60;;;12.40;99.90;;;;;;4991821;28;20421;-82
2023/03/14 07:29:57;;;;;;;4.40;1.77;;;12.80;99.90;;;;;;4990404;28;20440;-83
2023/03/14 07:32:23;;;;;;;4.23;1.67;;;12.80;99.90;;;;;;5008801;28;20505;-84
2023/03/14 07:34:49;;;;;;;3.47;1.80;;;12.50;99.90;;;;;;5011563;28;20415;-83
2023/03/14 07:37:15;;;;;;;4.25;1.55;;;12.30;99.90;;;;;;5003825;28;20766;-84
2023/03/14 07:39:40;;;;;;;5.85;1.90;;;12.40;99.90;;;;;;5009838;28;20399;-84
2023/03/14 07:42:06;;;;;;;4.17;1.90;;;12.30;99.90;;;;;;5010256;28;20414;-83
2023/03/14 07:44:32;;;;;;;3.03;1.70;;;12.10;99.90;;;;;;5010812;28;20446;-84
2023/03/14 07:46:58;;;;;;;4.27;1.83;;;12.40;99.90;;;;;;5006281;28;20438;-83
2023/03/14 07:49:24;;;;;;;6.63;1.83;;;12.60;99.90;;;;;;5009054;28;20434;-82
2023/03/14 07:51:50;;;;;;;4.57;1.70;;;12.90;99.90;;;;;;5008694;28;20907;-84
2023/03/14 07:54:16;;;;;;;6.47;1.80;;;12.60;99.90;;;;;;5011426;28;20505;-83
2023/03/14 07:56:41;;;;;;;3.80;1.70;;;12.30;99.90;;;;;;5009377;28;20449;-82
2023/03/14 07:59:08;;;;;;;4.73;1.70;;;12.20;99.90;;;;;;4988904;28;20412;-84
2023/03/14 08:01:34;;;;;;;4.45;1.80;;;12.30;99.90;;;;;;4998150;28;20503;-84
2023/03/14 08:04:00;;;;;;;6.50;1.92;;;12.20;99.90;;;;;;4990328;28;20393;-83
2023/03/14 08:06:27;;;;;;;5.10;1.92;;;12.20;99.90;;;;;;5006512;28;20410;-85
2023/03/14 08:08:53;;;;;;;4.30;1.85;;;12.10;99.90;;;;;;4994337;28;20456;-84
2023/03/14 08:11:19;;;;;;;3.75;1.75;;;12.10;99.90;;;;;;5000591;28;20882;-85
2023/03/14 08:13:49;;;;;;;4.87;1.80;;;12.20;99.90;;;;;;5015206;28;20387;-85
2023/03/14 08:16:21;;;;;;;6.10;1.75;;;12.10;99.90;;;;;;5012687;28;20749;-84
2023/03/14 08:18:48;;;;;;;4.18;1.75;;;12.00;99.90;;;;;;5014252;28;20477;-85
2023/03/14 08:21:16;;;;;;;3.78;1.90;;;12.10;99.90;;;;;;5013391;28;20484;-84
2023/03/14 08:23:42;;;;;;;5.40;1.90;;;12.00;99.90;;;;;;5005778;28;20384;-83
2023/03/14 08:26:09;;;;;;;5.33;1.90;;;12.00;99.90;;;;;;4991994;28;20392;-84
2023/03/14 08:28:34;;;;;;;3.63;1.60;;;12.10;99.90;;;;;;5008200;28;20401;-82
2023/03/14 08:31:01;;;;;;;5.88;1.95;;;12.10;99.90;;;;;;5013690;28;20379;-85
2023/03/14 08:33:28;;;;;;;4.97;2.03;;;12.00;99.90;;;;;;5014068;28;20530;-85
2023/03/14 08:35:56;;;;;;;6.03;1.65;;;12.70;99.90;;;;;;5011270;28;20379;-83
2023/03/14 08:38:22;;;;;;;4.38;1.55;;;13.60;99.90;;;;;;5008968;28;20418;-84
2023/03/14 08:40:49;;;;;;;4.13;1.50;;;13.40;99.90;;;;;;5010495;28;20375;-84
2023/03/14 08:43:14;;;;;;;5.90;1.85;;;13.00;99.90;;;;;;5009802;28;20387;-84
2023/03/14 08:45:40;;;;;;;4.50;1.80;;;12.90;99.90;;;;;;4991996;28;20400;-83
2023/03/14 08:48:06;;;;;;;6.13;2.00;;;13.10;99.90;;;;;;4992121;28;20491;-82
2023/03/14 08:50:32;;;;;;;5.47;1.70;;;13.00;99.90;;;;;;4999879;28;20534;-87
2023/03/14 08:52:59;;;;;;;3.15;1.63;;;13.00;99.90;;;;;;5011393;28;20387;-84
2023/03/14 08:55:29;;;;;;;4.53;1.87;;;13.20;99.90;;;;;;5013714;28;20387;-83
2023/03/14 08:57:55;;;;;;;5.97;1.47;;;13.30;99.90;;;;;;5001806;28;20903;-84
2023/03/14 09:00:21;;;;;;;6.47;2.30;;;13.40;99.90;;;;;;4998078;28;20493;-85
2023/03/14 09:02:47;;;;;;;5.70;1.73;;;13.80;99.90;;;;;;4999671;28;20392;-85
2023/03/14 09:05:13;;;;;;;4.28;1.50;;;14.30;99.90;;;;;;4995152;28;20389;-84
2023/03/14 09:07:41;;;;;;;3.53;1.50;;;15.00;99.90;;;;;;5004566;28;21076;-84
2023/03/14 09:10:09;;;;;;;3.70;1.47;;;14.90;99.90;;;;;;4998340;28;20407;-83
2023/03/14 09:12:41;;;;;;;2.40;1.23;;;;;;;;;;4995217;28;20414;-85
2023/03/14 09:15:08;;;;;;;2.55;1.30;;;;;;;;;;4993841;28;20379;-85
2023/03/14 09:17:34;;;;;;;4.28;1.40;;;15.00;99.90;;;;;;5002279;28;20462;-85
2023/03/14 09:20:00;;;;;;;3.22;1.58;;;14.80;99.90;;;;;;4999119;28;20492;-85
2023/03/14 09:22:26;;;;;;;3.22;1.50;;;14.70;99.90;;;;;;4995427;28;20414;-83
2023/03/14 09:24:51;;;;;;;3.67;1.50;;;14.30;99.90;;;;;;4994596;28;20840;-84
2023/03/14 09:27:17;;;;;;;4.73;1.47;;;14.00;99.90;;;;;;4991047;28;20404;-85
2023/03/14 09:29:43;;;;;;;4.38;1.45;;;14.00;99.90;;;;;;4995359;28;20400;-85
2023/03/14 09:32:11;;;;;;;3.05;1.30;;;14.20;99.90;;;;;;5018114;28;20443;-83
2023/03/14 09:34:57;;;;;;;5.20;1.33;;;13.90;99.90;;;;;;5026680;28;21026;-84
2023/03/14 09:37:23;;;;;;;3.22;1.33;;;14.00;99.90;;;;;;4992744;28;20409;-84
2023/03/14 09:39:49;;;;;;;3.97;1.40;;;13.90;99.90;;;;;;4992356;28;22293;-84
2023/03/14 09:42:19;;;;;;;3.63;1.42;;;13.90;99.90;;;;;;5009687;28;20434;-83
2023/03/14 09:45:03;;;;;;;4.28;1.70;;;14.10;99.90;;;;;;5011803;28;20478;-84
2023/03/14 09:47:30;;;;;;;2.87;1.40;;;14.60;99.90;;;;;;5011682;28;20379;-84
2023/03/14 09:49:55;;;;;;;4.45;1.90;;;14.60;99.90;;;;;;5010684;28;20409;-84
2023/03/14 09:52:30;;;;;;;4.30;1.30;;;14.90;99.90;;;;;;5010386;28;20380;-84
2023/03/14 09:55:17;;;;;;;5.28;1.60;;;14.70;99.90;;;;;;5013385;28;20393;-85
2023/03/14 09:57:44;;;;;;;4.90;1.50;;;14.40;99.90;;;;;;5012743;28;20758;-83
2023/03/14 10:00:20;;;;;;;2.92;1.30;;;14.30;99.90;;;;;;5011239;28;20375;-84
2023/03/14 10:02:55;;;;;;;3.95;1.48;;;13.90;99.90;;;;;;5014007;28;20399;-85
2023/03/14 10:05:27;;;;;;;5.40;1.70;;;13.80;99.90;;;;;;5014919;28;20870;-85
2023/03/14 10:07:53;;;;;;;5.40;1.42;;;13.60;99.90;;;;;;5013082;28;20473;-83
2023/03/14 10:10:22;;;;;;;4.57;1.67;;;13.40;99.90;;;;;;5013191;28;20385;-83
2023/03/14 10:12:56;;;;;;;3.08;1.25;;;13.60;99.90;;;;;;5012769;28;20411;-81
2023/03/14 10:15:32;;;;;;;4.93;1.45;;;13.50;99.90;;;;;;5012911;28;20429;-81
2023/03/14 10:18:00;;;;;;;3.00;1.20;;;13.40;99.90;;;;;;5011951;28;20407;-81
2023/03/14 10:20:37;;;;;;;3.13;1.45;;;13.30;99.90;;;;;;5012995;28;20876;-81
2023/03/14 10:23:12;;;;;;;3.22;1.55;;;13.30;99.90;;;;;;5011124;28;20878;-81
2023/03/14 10:25:41;;;;;;;2.67;1.13;;;13.20;99.90;;;;;;5012256;28;20382;-81
2023/03/14 10:28:31;;;;;;;4.78;1.30;;;13.30;99.90;;;;;;5011333;28;20382;-81
2023/03/14 10:30:57;;;;;;;3.88;1.30;;;13.40;99.90;;;;;;5011572;28;20377;-82
2023/03/14 10:33:26;;;;;;;3.72;1.30;;;13.50;99.90;;;;;;5010576;28;20387;-81
2023/03/14 10:36:13;;;;;;;3.42;1.20;;;13.50;99.90;;;;;;5011947;28;20387;-81
2023/03/14 10:38:39;;;;;;;4.43;1.27;;;13.40;99.90;;;;;;4995507;28;20526;-81
2023/03/14 10:41:23;;;;;;;2.60;1.23;;;13.40;99.90;;;;;;5011351;28;20892;-81
2023/03/14 10:43:58;;;;;;;2.45;1.30;;;13.40;99.90;;;;;;5011596;28;20390;-81
2023/03/14 10:46:25;;;;;;;3.80;1.15;;;13.50;99.90;;;;;;5010592;28;20398;-81
2023/03/14 10:48:53;;;;;;;4.05;1.20;;;13.40;99.90;;;;;;5011327;28;20418;-81
2023/03/14 10:51:27;;;;;;;3.17;1.00;;;13.30;99.90;;;;;;5010960;28;20426;-81
2023/03/14 10:53:59;;;;;;;2.45;1.10;;;13.30;99.90;;;;;;5011099;28;20382;-81
2023/03/14 10:56:27;;;;;;;3.42;1.20;;;13.40;99.90;;;;;;5009411;28;20382;-82
2023/03/14 10:58:59;;;;;;;3.03;1.20;;;13.30;99.90;;;;;;5011088;28;20407;-81
2023/03/14 11:02:03;;;;;;;3.67;1.25;;;13.30;99.90;;;;;;5011423;28;20400;-82
2023/03/14 11:04:50;;;;;;;3.63;1.23;;;13.20;99.90;;;;;;5010827;28;20380;-81
2023/03/14 11:07:45;;;;;;;4.63;1.33;;;13.30;99.90;;;;;;5005899;28;20515;-81
2023/03/14 11:10:17;;;;;;;4.03;1.25;;;13.30;99.90;;;;;;4994212;28;20477;-80
2023/03/14 11:13:15;;;;;;;2.72;1.20;;;13.30;99.90;;;;;;5011162;28;20375;-80
2023/03/14 11:16:15;;;;;;;2.08;1.10;;;13.30;99.90;;;;;;5010036;28;20453;-81
2023/03/14 11:19:17;;;;;;;4.87;1.47;;;13.40;99.90;;;;;;5010751;28;20921;-79
2023/03/14 11:22:08;;;;;;;5.65;1.30;;;13.20;99.90;;;;;;5011781;28;20426;-82
2023/03/14 11:25:03;;;;;;;3.70;1.60;;;13.10;99.90;;;;;;5010887;28;20430;-80
2023/03/14 11:27:44;;;;;;;3.78;1.27;;;13.00;99.90;;;;;;5003439;28;20393;-81
2023/03/14 11:30:34;;;;;;;2.10;1.20;;;13.00;99.90;;;;;;4993648;28;20393;-81
2023/03/14 11:33:05;;;;;;;3.20;1.30;;;13.20;99.90;;;;;;5011739;28;20398;-79
2023/03/14 11:36:15;;;;;;;3.10;1.48;;;13.30;99.90;;;;;;5030195;28;20387;-79
2023/03/14 11:39:24;;;;;;;2.83;1.13;;;13.30;99.90;;;;;;5022688;28;20404;-80
2023/03/14 11:42:03;;;;;;;2.92;1.40;;;13.20;99.90;;;;;;4996787;28;20907;-80
2023/03/14 11:44:40;;;;;;;4.70;1.27;;;13.00;99.90;;;;;;5017076;28;20463;-81
2023/03/14 11:47:13;;;;;;;2.78;1.10;;;12.90;99.90;;;;;;5015928;28;20397;-82
2023/03/14 11:49:56;;;;;;;3.08;1.30;;;12.80;99.90;;;;;;5002872;28;20473;-80
2023/03/14 11:52:37;;;;;;;2.80;1.10;;;12.80;99.90;;;;;;5000348;28;20407;-80
2023/03/14 11:55:25;;;;;;;2.20;1.10;;;12.70;99.90;;;;;;5000183;28;20388;-80
2023/03/14 11:57:56;;;;;;;3.63;1.33;;;12.70;99.90;;;;;;5001190;28;20475;-82
2023/03/14 12:00:24;;;;;;;2.38;1.52;;;12.70;99.90;;;;;;5000234;28;20405;-80
2023/03/14 12:03:11;;;;;;;3.22;1.30;;;12.90;99.90;;;;;;4999141;28;20475;-80
2023/03/14 12:06:03;;;;;;;2.88;1.50;;;13.10;99.90;;;;;;5014883;28;20913;-81
2023/03/14 12:08:34;;;;;;;2.05;1.15;;;13.30;99.90;;;;;;5001303;28;20413;-81
2023/03/14 12:11:05;;;;;;;3.70;1.35;;;13.40;99.90;;;;;;5001010;28;20383;-81
2023/03/14 12:13:37;;;;;;;1.87;1.00;;;13.60;99.90;;;;;;5003455;28;20405;-81
2023/03/14 12:16:22;;;;;;;1.60;1.00;;;14.00;99.90;;;;;;5007966;28;20498;-81
2023/03/14 12:18:50;;;;;;;2.23;0.80;;;14.10;99.90;;;;;;5021245;28;20419;-80
2023/03/14 12:21:17;;;;;;;1.40;0.98;;;14.30;99.90;;;;;;5020931;28;20410;-81
2023/03/14 12:23:52;;;;;;;2.90;1.00;;;14.60;99.90;;;;;;5021828;28;20412;-81
2023/03/14 12:26:19;;;;;;;3.00;1.10;;;14.60;99.90;;;;;;5008343;28;20504;-82
2023/03/14 12:29:14;;;;;;;2.72;1.10;;;14.90;99.90;;;;;;4998263;28;20731;-82
2023/03/14 12:31:47;;;;;;;1.93;1.20;;;15.30;99.90;;;;;;4996816;28;20373;-81
2023/03/14 12:34:13;;;;;;;1.75;0.80;;;15.10;99.90;;;;;;4997001;28;20538;-81
2023/03/14 12:36:51;;;;;;;1.70;0.80;;;14.80;99.90;;;;;;5013737;28;20387;-81
2023/03/14 12:39:40;;;;;;;1.50;0.80;;;14.40;99.90;;;;;;4998631;28;20756;-80
2023/03/14 12:42:14;;;;;;;1.80;0.90;;;14.40;99.90;;;;;;4996954;28;20383;-80
2023/03/14 12:44:51;;;;;;;2.50;1.02;;;14.20;99.90;;;;;;4994572;28;20387;-81
2023/03/14 12:47:20;;;;;;;2.13;0.90;;;14.30;99.90;;;;;;5000735;28;20399;-80
2023/03/14 12:49:53;;;;;;;1.40;0.85;;;14.20;99.90;;;;;;4995630;28;20735;-80
2023/03/14 12:52:32;;;;;;;1.48;0.70;;;14.10;99.90;;;;;;4997266;28;20620;-82
2023/03/14 12:55:20;;;;;;;2.75;0.82;;;13.90;99.90;;;;;;4996733;28;20395;-81
2023/03/14 12:58:22;;;;;;;2.85;1.00;;;14.40;99.90;;;;;;5000132;28;20407;-82
2023/03/14 13:00:56;;;;;;;2.25;0.80;;;14.50;99.90;;;;;;4985866;28;20752;-81
2023/03/14 13:03:27;;;;;;;2.00;1.00;;;14.30;99.90;;;;;;5014680;28;20418;-81